Aviation Digital Data Service (ADDS)

Output produced by TAFs form (0643 UTC 03 September 2015)
found at http://aviationweather.gov/adds/tafs/
 
KASE 030534Z 0306/0406 19006KT P6SM SCT080 BKN200 
     FM031200 22003KT P6SM VCSH BKN070 
     FM031900 33007KT P6SM VCTS BKN060CB 
     FM040200 19007KT P6SM BKN080